sensor_id;sensor_type;location;lat;lon;timestamp;P1;durP1;ratioP1;P2;durP2;ratioP2
25279;SDS011;13225;47.804;12.116;2023-11-18T00:00:31;2.58;;;2.30;;
25279;SDS011;13225;47.804;12.116;2023-11-18T00:02:57;4.65;;;2.85;;
25279;SDS011;13225;47.804;12.116;2023-11-18T00:05:23;3.13;;;2.50;;
25279;SDS011;13225;47.804;12.116;2023-11-18T00:07:51;4.10;;;2.50;;
25279;SDS011;13225;47.804;12.116;2023-11-18T00:10:17;5.35;;;2.53;;
25279;SDS011;13225;47.804;12.116;2023-11-18T00:12:43;3.72;;;2.50;;
25279;SDS011;13225;47.804;12.116;2023-11-18T00:15:08;3.00;;;2.70;;
25279;SDS011;13225;47.804;12.116;2023-11-18T00:17:36;3.28;;;2.63;;
25279;SDS011;13225;47.804;12.116;2023-11-18T00:20:03;4.30;;;2.60;;
25279;SDS011;13225;47.804;12.116;2023-11-18T00:22:34;5.45;;;2.80;;
25279;SDS011;13225;47.804;12.116;2023-11-18T00:25:01;4.03;;;2.90;;
25279;SDS011;13225;47.804;12.116;2023-11-18T00:27:31;3.33;;;2.38;;
25279;SDS011;13225;47.804;12.116;2023-11-18T00:30:00;4.40;;;2.47;;
25279;SDS011;13225;47.804;12.116;2023-11-18T00:32:26;3.60;;;2.78;;
25279;SDS011;13225;47.804;12.116;2023-11-18T00:34:52;3.40;;;2.60;;
25279;SDS011;13225;47.804;12.116;2023-11-18T00:37:17;2.97;;;2.40;;
25279;SDS011;13225;47.804;12.116;2023-11-18T00:39:43;5.05;;;2.50;;
25279;SDS011;13225;47.804;12.116;2023-11-18T00:42:09;3.08;;;2.33;;
25279;SDS011;13225;47.804;12.116;2023-11-18T00:44:34;2.20;;;2.00;;
25279;SDS011;13225;47.804;12.116;2023-11-18T00:47:03;3.22;;;2.40;;
25279;SDS011;13225;47.804;12.116;2023-11-18T00:49:32;3.53;;;2.67;;
25279;SDS011;13225;47.804;12.116;2023-11-18T00:52:01;2.95;;;2.30;;
25279;SDS011;13225;47.804;12.116;2023-11-18T00:54:29;3.15;;;2.50;;
25279;SDS011;13225;47.804;12.116;2023-11-18T00:56:59;3.17;;;2.50;;
25279;SDS011;13225;47.804;12.116;2023-11-18T00:59:25;3.22;;;2.38;;
25279;SDS011;13225;47.804;12.116;2023-11-18T01:01:52;2.75;;;2.40;;
25279;SDS011;13225;47.804;12.116;2023-11-18T01:04:17;2.95;;;2.50;;
25279;SDS011;13225;47.804;12.116;2023-11-18T01:06:45;5.35;;;2.40;;
25279;SDS011;13225;47.804;12.116;2023-11-18T01:09:10;3.45;;;2.38;;
25279;SDS011;13225;47.804;12.116;2023-11-18T01:11:37;2.75;;;2.20;;
25279;SDS011;13225;47.804;12.116;2023-11-18T01:14:05;2.40;;;2.20;;
25279;SDS011;13225;47.804;12.116;2023-11-18T01:16:31;3.45;;;2.33;;
25279;SDS011;13225;47.804;12.116;2023-11-18T01:18:57;3.00;;;1.98;;
25279;SDS011;13225;47.804;12.116;2023-11-18T01:21:22;3.65;;;2.00;;
25279;SDS011;13225;47.804;12.116;2023-11-18T01:23:48;3.88;;;2.13;;
25279;SDS011;13225;47.804;12.116;2023-11-18T01:26:17;2.35;;;1.88;;
25279;SDS011;13225;47.804;12.116;2023-11-18T01:28:42;2.28;;;1.80;;
25279;SDS011;13225;47.804;12.116;2023-11-18T01:31:10;2.75;;;2.05;;
25279;SDS011;13225;47.804;12.116;2023-11-18T01:33:39;3.58;;;2.40;;
25279;SDS011;13225;47.804;12.116;2023-11-18T01:36:08;2.20;;;1.83;;
25279;SDS011;13225;47.804;12.116;2023-11-18T01:38:35;5.35;;;2.38;;
25279;SDS011;13225;47.804;12.116;2023-11-18T01:41:02;3.00;;;1.80;;
25279;SDS011;13225;47.804;12.116;2023-11-18T01:43:30;2.53;;;1.70;;
25279;SDS011;13225;47.804;12.116;2023-11-18T01:45:59;1.85;;;1.60;;
25279;SDS011;13225;47.804;12.116;2023-11-18T01:48:38;1.65;;;1.50;;
25279;SDS011;13225;47.804;12.116;2023-11-18T01:51:07;1.58;;;1.48;;
25279;SDS011;13225;47.804;12.116;2023-11-18T01:53:36;1.58;;;1.40;;
25279;SDS011;13225;47.804;12.116;2023-11-18T01:56:05;1.45;;;1.10;;
25279;SDS011;13225;47.804;12.116;2023-11-18T01:58:35;1.75;;;1.30;;
25279;SDS011;13225;47.804;12.116;2023-11-18T02:01:02;1.58;;;1.48;;
25279;SDS011;13225;47.804;12.116;2023-11-18T02:03:33;1.67;;;1.38;;
25279;SDS011;13225;47.804;12.116;2023-11-18T02:05:59;1.90;;;1.40;;
25279;SDS011;13225;47.804;12.116;2023-11-18T02:08:29;1.40;;;1.20;;
25279;SDS011;13225;47.804;12.116;2023-11-18T02:11:09;1.20;;;1.10;;
25279;SDS011;13225;47.804;12.116;2023-11-18T02:13:47;0.98;;;0.90;;
25279;SDS011;13225;47.804;12.116;2023-11-18T02:16:15;1.23;;;1.13;;
25279;SDS011;13225;47.804;12.116;2023-11-18T02:18:42;1.35;;;1.20;;
25279;SDS011;13225;47.804;12.116;2023-11-18T02:21:08;0.90;;;0.90;;
25279;SDS011;13225;47.804;12.116;2023-11-18T02:23:36;1.35;;;1.10;;
25279;SDS011;13225;47.804;12.116;2023-11-18T02:26:02;0.80;;;0.80;;
25279;SDS011;13225;47.804;12.116;2023-11-18T02:28:28;1.13;;;1.00;;
25279;SDS011;13225;47.804;12.116;2023-11-18T02:30:56;1.10;;;1.05;;
25279;SDS011;13225;47.804;12.116;2023-11-18T02:36:10;1.35;;;1.25;;
25279;SDS011;13225;47.804;12.116;2023-11-18T02:38:46;2.10;;;1.30;;
25279;SDS011;13225;47.804;12.116;2023-11-18T02:41:14;1.30;;;1.20;;
25279;SDS011;13225;47.804;12.116;2023-11-18T02:43:43;1.13;;;1.02;;
25279;SDS011;13225;47.804;12.116;2023-11-18T02:46:12;1.05;;;1.05;;
25279;SDS011;13225;47.804;12.116;2023-11-18T02:48:39;1.33;;;1.23;;
25279;SDS011;13225;47.804;12.116;2023-11-18T02:51:06;1.40;;;1.30;;
25279;SDS011;13225;47.804;12.116;2023-11-18T02:53:33;1.20;;;1.10;;
25279;SDS011;13225;47.804;12.116;2023-11-18T02:55:59;1.15;;;1.15;;
25279;SDS011;13225;47.804;12.116;2023-11-18T02:58:30;1.13;;;1.10;;
25279;SDS011;13225;47.804;12.116;2023-11-18T03:00:56;0.95;;;0.95;;
25279;SDS011;13225;47.804;12.116;2023-11-18T03:03:24;1.15;;;1.05;;
25279;SDS011;13225;47.804;12.116;2023-11-18T03:05:50;1.38;;;1.10;;
25279;SDS011;13225;47.804;12.116;2023-11-18T03:08:16;1.38;;;1.27;;
25279;SDS011;13225;47.804;12.116;2023-11-18T03:10:42;1.23;;;1.15;;
25279;SDS011;13225;47.804;12.116;2023-11-18T03:13:09;2.22;;;1.30;;
25279;SDS011;13225;47.804;12.116;2023-11-18T03:15:35;1.27;;;1.17;;
25279;SDS011;13225;47.804;12.116;2023-11-18T03:18:01;1.30;;;1.20;;
25279;SDS011;13225;47.804;12.116;2023-11-18T03:20:28;1.30;;;1.20;;
25279;SDS011;13225;47.804;12.116;2023-11-18T03:22:54;1.25;;;1.15;;
25279;SDS011;13225;47.804;12.116;2023-11-18T03:25:19;0.95;;;0.93;;
25279;SDS011;13225;47.804;12.116;2023-11-18T03:27:47;2.15;;;1.30;;
25279;SDS011;13225;47.804;12.116;2023-11-18T03:30:15;1.25;;;1.15;;
25279;SDS011;13225;47.804;12.116;2023-11-18T03:32:42;1.55;;;1.20;;
25279;SDS011;13225;47.804;12.116;2023-11-18T03:35:07;1.25;;;1.20;;
25279;SDS011;13225;47.804;12.116;2023-11-18T03:37:40;1.35;;;1.25;;
25279;SDS011;13225;47.804;12.116;2023-11-18T03:40:10;1.98;;;1.30;;
25279;SDS011;13225;47.804;12.116;2023-11-18T03:42:37;1.27;;;1.10;;
25279;SDS011;13225;47.804;12.116;2023-11-18T03:45:03;1.33;;;1.20;;
25279;SDS011;13225;47.804;12.116;2023-11-18T03:47:30;1.25;;;1.15;;
25279;SDS011;13225;47.804;12.116;2023-11-18T03:49:56;1.27;;;1.17;;
25279;SDS011;13225;47.804;12.116;2023-11-18T03:52:21;1.27;;;1.17;;
25279;SDS011;13225;47.804;12.116;2023-11-18T03:54:47;1.25;;;1.15;;
25279;SDS011;13225;47.804;12.116;2023-11-18T03:57:13;0.90;;;0.90;;
25279;SDS011;13225;47.804;12.116;2023-11-18T03:59:39;0.88;;;0.88;;
25279;SDS011;13225;47.804;12.116;2023-11-18T04:02:06;1.20;;;1.10;;
25279;SDS011;13225;47.804;12.116;2023-11-18T04:04:32;1.65;;;1.00;;
25279;SDS011;13225;47.804;12.116;2023-11-18T04:06:58;1.00;;;1.00;;
25279;SDS011;13225;47.804;12.116;2023-11-18T04:09:26;1.10;;;1.00;;
25279;SDS011;13225;47.804;12.116;2023-11-18T04:11:52;1.05;;;0.95;;
25279;SDS011;13225;47.804;12.116;2023-11-18T04:14:18;1.23;;;1.08;;
25279;SDS011;13225;47.804;12.116;2023-11-18T04:16:47;1.33;;;1.23;;
25279;SDS011;13225;47.804;12.116;2023-11-18T04:19:17;1.17;;;1.10;;
25279;SDS011;13225;47.804;12.116;2023-11-18T04:21:43;1.30;;;1.08;;
25279;SDS011;13225;47.804;12.116;2023-11-18T04:24:13;1.38;;;1.15;;
25279;SDS011;13225;47.804;12.116;2023-11-18T04:26:38;1.85;;;1.15;;
25279;SDS011;13225;47.804;12.116;2023-11-18T04:29:07;1.10;;;1.10;;
25279;SDS011;13225;47.804;12.116;2023-11-18T04:31:33;1.25;;;1.15;;
25279;SDS011;13225;47.804;12.116;2023-11-18T04:33:59;1.17;;;1.08;;
25279;SDS011;13225;47.804;12.116;2023-11-18T04:36:25;1.40;;;1.30;;
25279;SDS011;13225;47.804;12.116;2023-11-18T04:38:51;1.27;;;1.15;;
25279;SDS011;13225;47.804;12.116;2023-11-18T04:41:17;1.52;;;1.40;;
25279;SDS011;13225;47.804;12.116;2023-11-18T04:43:43;1.90;;;1.50;;
25279;SDS011;13225;47.804;12.116;2023-11-18T04:46:09;3.03;;;1.60;;
25279;SDS011;13225;47.804;12.116;2023-11-18T04:48:35;1.33;;;1.23;;
25279;SDS011;13225;47.804;12.116;2023-11-18T04:51:01;1.40;;;1.30;;
25279;SDS011;13225;47.804;12.116;2023-11-18T04:53:27;1.65;;;1.48;;
25279;SDS011;13225;47.804;12.116;2023-11-18T04:55:53;2.17;;;1.50;;
25279;SDS011;13225;47.804;12.116;2023-11-18T04:58:21;2.88;;;1.65;;
25279;SDS011;13225;47.804;12.116;2023-11-18T05:00:47;1.40;;;1.30;;
25279;SDS011;13225;47.804;12.116;2023-11-18T05:03:13;1.90;;;1.70;;
25279;SDS011;13225;47.804;12.116;2023-11-18T05:05:41;1.80;;;1.70;;
25279;SDS011;13225;47.804;12.116;2023-11-18T05:08:17;1.65;;;1.55;;
25279;SDS011;13225;47.804;12.116;2023-11-18T05:10:47;1.83;;;1.60;;
25279;SDS011;13225;47.804;12.116;2023-11-18T05:13:14;2.17;;;1.70;;
25279;SDS011;13225;47.804;12.116;2023-11-18T05:15:42;1.65;;;1.55;;
25279;SDS011;13225;47.804;12.116;2023-11-18T05:18:14;2.70;;;1.85;;
25279;SDS011;13225;47.804;12.116;2023-11-18T05:20:46;2.10;;;1.80;;
25279;SDS011;13225;47.804;12.116;2023-11-18T05:23:12;1.77;;;1.63;;
25279;SDS011;13225;47.804;12.116;2023-11-18T05:25:41;2.42;;;2.10;;
25279;SDS011;13225;47.804;12.116;2023-11-18T05:28:11;2.28;;;2.08;;
25279;SDS011;13225;47.804;12.116;2023-11-18T05:30:37;2.15;;;1.75;;
25279;SDS011;13225;47.804;12.116;2023-11-18T05:33:06;1.98;;;1.77;;
25279;SDS011;13225;47.804;12.116;2023-11-18T05:35:32;2.00;;;1.80;;
25279;SDS011;13225;47.804;12.116;2023-11-18T05:37:58;2.40;;;1.90;;
25279;SDS011;13225;47.804;12.116;2023-11-18T05:40:25;2.15;;;1.90;;
25279;SDS011;13225;47.804;12.116;2023-11-18T05:42:52;2.30;;;2.10;;
25279;SDS011;13225;47.804;12.116;2023-11-18T05:45:22;2.35;;;2.05;;
25279;SDS011;13225;47.804;12.116;2023-11-18T05:47:56;2.25;;;2.05;;
25279;SDS011;13225;47.804;12.116;2023-11-18T05:50:23;1.98;;;1.77;;
25279;SDS011;13225;47.804;12.116;2023-11-18T05:52:53;3.08;;;2.40;;
25279;SDS011;13225;47.804;12.116;2023-11-18T05:55:19;2.95;;;2.22;;
25279;SDS011;13225;47.804;12.116;2023-11-18T05:57:44;2.97;;;2.60;;
25279;SDS011;13225;47.804;12.116;2023-11-18T06:00:13;2.58;;;2.38;;
25279;SDS011;13225;47.804;12.116;2023-11-18T06:02:41;4.47;;;2.30;;
25279;SDS011;13225;47.804;12.116;2023-11-18T06:05:07;3.83;;;2.40;;
25279;SDS011;13225;47.804;12.116;2023-11-18T06:07:37;3.20;;;2.70;;
25279;SDS011;13225;47.804;12.116;2023-11-18T06:10:08;4.28;;;2.35;;
25279;SDS011;13225;47.804;12.116;2023-11-18T06:12:37;4.38;;;2.35;;
25279;SDS011;13225;47.804;12.116;2023-11-18T06:15:05;3.58;;;2.70;;
25279;SDS011;13225;47.804;12.116;2023-11-18T06:17:33;7.20;;;2.67;;
25279;SDS011;13225;47.804;12.116;2023-11-18T06:19:59;3.65;;;2.70;;
25279;SDS011;13225;47.804;12.116;2023-11-18T06:22:25;3.10;;;2.67;;
25279;SDS011;13225;47.804;12.116;2023-11-18T06:24:50;3.35;;;2.85;;
25279;SDS011;13225;47.804;12.116;2023-11-18T06:27:17;4.57;;;2.72;;
25279;SDS011;13225;47.804;12.116;2023-11-18T06:29:48;3.45;;;2.60;;
25279;SDS011;13225;47.804;12.116;2023-11-18T06:32:15;6.05;;;2.55;;
25279;SDS011;13225;47.804;12.116;2023-11-18T06:34:41;4.32;;;2.65;;
25279;SDS011;13225;47.804;12.116;2023-11-18T06:37:06;3.90;;;2.35;;
25279;SDS011;13225;47.804;12.116;2023-11-18T06:39:32;6.20;;;2.40;;
25279;SDS011;13225;47.804;12.116;2023-11-18T06:42:00;3.75;;;2.20;;
25279;SDS011;13225;47.804;12.116;2023-11-18T06:44:27;2.30;;;2.10;;
25279;SDS011;13225;47.804;12.116;2023-11-18T06:46:54;2.90;;;2.60;;
25279;SDS011;13225;47.804;12.116;2023-11-18T06:49:20;6.07;;;3.20;;
25279;SDS011;13225;47.804;12.116;2023-11-18T06:51:45;5.15;;;3.25;;
25279;SDS011;13225;47.804;12.116;2023-11-18T06:54:11;5.18;;;3.00;;
25279;SDS011;13225;47.804;12.116;2023-11-18T06:56:42;7.10;;;3.95;;
25279;SDS011;13225;47.804;12.116;2023-11-18T06:59:09;5.03;;;3.55;;
25279;SDS011;13225;47.804;12.116;2023-11-18T07:01:37;6.78;;;2.85;;
25279;SDS011;13225;47.804;12.116;2023-11-18T07:04:09;1.60;;;1.50;;
25279;SDS011;13225;47.804;12.116;2023-11-18T07:06:36;1.20;;;1.10;;
25279;SDS011;13225;47.804;12.116;2023-11-18T07:09:06;1.25;;;1.15;;
25279;SDS011;13225;47.804;12.116;2023-11-18T07:11:42;1.52;;;1.20;;
25279;SDS011;13225;47.804;12.116;2023-11-18T07:14:09;1.55;;;1.20;;
25279;SDS011;13225;47.804;12.116;2023-11-18T07:16:39;1.15;;;1.00;;
25279;SDS011;13225;47.804;12.116;2023-11-18T07:19:05;1.40;;;1.30;;
25279;SDS011;13225;47.804;12.116;2023-11-18T07:21:30;2.20;;;1.40;;
25279;SDS011;13225;47.804;12.116;2023-11-18T07:23:58;2.35;;;1.40;;
25279;SDS011;13225;47.804;12.116;2023-11-18T07:26:25;3.00;;;1.23;;
25279;SDS011;13225;47.804;12.116;2023-11-18T07:28:51;1.20;;;1.10;;
25279;SDS011;13225;47.804;12.116;2023-11-18T07:31:17;1.42;;;1.10;;
25279;SDS011;13225;47.804;12.116;2023-11-18T07:33:44;1.20;;;1.10;;
25279;SDS011;13225;47.804;12.116;2023-11-18T07:36:14;1.15;;;1.05;;
25279;SDS011;13225;47.804;12.116;2023-11-18T07:38:41;2.22;;;1.30;;
25279;SDS011;13225;47.804;12.116;2023-11-18T07:41:07;1.23;;;1.13;;
25279;SDS011;13225;47.804;12.116;2023-11-18T07:43:33;2.28;;;1.13;;
25279;SDS011;13225;47.804;12.116;2023-11-18T07:46:08;2.70;;;1.50;;
25279;SDS011;13225;47.804;12.116;2023-11-18T07:48:38;3.10;;;1.80;;
25279;SDS011;13225;47.804;12.116;2023-11-18T07:51:04;2.38;;;1.58;;
25279;SDS011;13225;47.804;12.116;2023-11-18T07:53:31;2.53;;;1.80;;
25279;SDS011;13225;47.804;12.116;2023-11-18T07:55:57;1.63;;;1.27;;
25279;SDS011;13225;47.804;12.116;2023-11-18T07:58:23;1.55;;;1.45;;
25279;SDS011;13225;47.804;12.116;2023-11-18T08:00:48;1.67;;;1.45;;
25279;SDS011;13225;47.804;12.116;2023-11-18T08:03:15;1.30;;;1.20;;
25279;SDS011;13225;47.804;12.116;2023-11-18T08:05:41;1.73;;;1.50;;
25279;SDS011;13225;47.804;12.116;2023-11-18T08:08:11;2.20;;;1.63;;
25279;SDS011;13225;47.804;12.116;2023-11-18T08:10:40;2.67;;;1.90;;
25279;SDS011;13225;47.804;12.116;2023-11-18T08:13:06;4.22;;;2.08;;
25279;SDS011;13225;47.804;12.116;2023-11-18T08:15:42;1.88;;;1.75;;
25279;SDS011;13225;47.804;12.116;2023-11-18T08:18:12;2.78;;;2.17;;
25279;SDS011;13225;47.804;12.116;2023-11-18T08:20:38;3.05;;;2.75;;
25279;SDS011;13225;47.804;12.116;2023-11-18T08:23:04;3.60;;;2.90;;
25279;SDS011;13225;47.804;12.116;2023-11-18T08:25:30;5.38;;;2.75;;
25279;SDS011;13225;47.804;12.116;2023-11-18T08:27:59;7.32;;;3.35;;
25279;SDS011;13225;47.804;12.116;2023-11-18T08:30:32;4.13;;;2.70;;
25279;SDS011;13225;47.804;12.116;2023-11-18T08:32:59;3.55;;;2.47;;
25279;SDS011;13225;47.804;12.116;2023-11-18T08:35:24;3.03;;;2.20;;
25279;SDS011;13225;47.804;12.116;2023-11-18T08:37:50;3.13;;;2.22;;
25279;SDS011;13225;47.804;12.116;2023-11-18T08:40:17;3.55;;;2.53;;
25279;SDS011;13225;47.804;12.116;2023-11-18T08:45:17;3.90;;;2.10;;
25279;SDS011;13225;47.804;12.116;2023-11-18T08:47:47;2.78;;;2.30;;
25279;SDS011;13225;47.804;12.116;2023-11-18T08:50:14;3.50;;;2.17;;
25279;SDS011;13225;47.804;12.116;2023-11-18T08:52:43;2.30;;;2.08;;
25279;SDS011;13225;47.804;12.116;2023-11-18T08:55:15;3.80;;;2.40;;
25279;SDS011;13225;47.804;12.116;2023-11-18T08:57:49;2.53;;;2.20;;
25279;SDS011;13225;47.804;12.116;2023-11-18T09:00:28;5.82;;;2.60;;
25279;SDS011;13225;47.804;12.116;2023-11-18T09:03:15;2.63;;;2.08;;
25279;SDS011;13225;47.804;12.116;2023-11-18T09:05:59;5.45;;;2.97;;
25279;SDS011;13225;47.804;12.116;2023-11-18T09:08:33;2.97;;;1.90;;
25279;SDS011;13225;47.804;12.116;2023-11-18T09:11:00;2.80;;;2.10;;
25279;SDS011;13225;47.804;12.116;2023-11-18T09:13:33;3.42;;;2.20;;
25279;SDS011;13225;47.804;12.116;2023-11-18T09:16:03;3.15;;;2.20;;
25279;SDS011;13225;47.804;12.116;2023-11-18T09:18:33;3.13;;;2.08;;
25279;SDS011;13225;47.804;12.116;2023-11-18T09:21:00;6.57;;;2.10;;
25279;SDS011;13225;47.804;12.116;2023-11-18T09:23:26;3.63;;;1.90;;
25279;SDS011;13225;47.804;12.116;2023-11-18T09:25:53;3.22;;;2.33;;
25279;SDS011;13225;47.804;12.116;2023-11-18T09:28:20;4.43;;;2.10;;
25279;SDS011;13225;47.804;12.116;2023-11-18T09:30:49;3.42;;;2.05;;
25279;SDS011;13225;47.804;12.116;2023-11-18T09:33:21;2.85;;;2.05;;
25279;SDS011;13225;47.804;12.116;2023-11-18T09:35:54;4.18;;;2.00;;
25279;SDS011;13225;47.804;12.116;2023-11-18T09:38:24;3.78;;;2.42;;
25279;SDS011;13225;47.804;12.116;2023-11-18T09:40:52;2.22;;;1.98;;
25279;SDS011;13225;47.804;12.116;2023-11-18T09:43:19;5.18;;;2.85;;
25279;SDS011;13225;47.804;12.116;2023-11-18T09:45:47;5.03;;;2.63;;
25279;SDS011;13225;47.804;12.116;2023-11-18T09:48:20;6.50;;;3.10;;
25279;SDS011;13225;47.804;12.116;2023-11-18T09:50:50;4.95;;;3.20;;
25279;SDS011;13225;47.804;12.116;2023-11-18T09:53:17;6.80;;;2.97;;
25279;SDS011;13225;47.804;12.116;2023-11-18T09:55:56;7.07;;;2.78;;
25279;SDS011;13225;47.804;12.116;2023-11-18T09:58:31;5.25;;;2.47;;
25279;SDS011;13225;47.804;12.116;2023-11-18T10:01:06;4.75;;;2.80;;
25279;SDS011;13225;47.804;12.116;2023-11-18T10:03:38;3.25;;;2.10;;
25279;SDS011;13225;47.804;12.116;2023-11-18T10:06:08;2.65;;;1.80;;
25279;SDS011;13225;47.804;12.116;2023-11-18T10:08:34;1.45;;;1.35;;
25279;SDS011;13225;47.804;12.116;2023-11-18T10:11:03;3.72;;;1.50;;
25279;SDS011;13225;47.804;12.116;2023-11-18T10:13:34;1.02;;;1.00;;
25279;SDS011;13225;47.804;12.116;2023-11-18T10:16:06;3.05;;;1.17;;
25279;SDS011;13225;47.804;12.116;2023-11-18T10:18:33;1.08;;;0.98;;
25279;SDS011;13225;47.804;12.116;2023-11-18T10:21:01;1.60;;;1.10;;
25279;SDS011;13225;47.804;12.116;2023-11-18T10:23:33;2.50;;;1.08;;
25279;SDS011;13225;47.804;12.116;2023-11-18T10:25:59;2.05;;;1.23;;
25279;SDS011;13225;47.804;12.116;2023-11-18T10:31:03;2.00;;;1.20;;
25279;SDS011;13225;47.804;12.116;2023-11-18T10:33:38;0.88;;;0.88;;
25279;SDS011;13225;47.804;12.116;2023-11-18T10:36:18;2.30;;;1.00;;
25279;SDS011;13225;47.804;12.116;2023-11-18T10:38:48;3.05;;;1.40;;
25279;SDS011;13225;47.804;12.116;2023-11-18T10:41:20;1.52;;;1.20;;
25279;SDS011;13225;47.804;12.116;2023-11-18T10:43:46;1.13;;;0.90;;
25279;SDS011;13225;47.804;12.116;2023-11-18T10:46:15;2.35;;;0.90;;
25279;SDS011;13225;47.804;12.116;2023-11-18T10:48:45;1.55;;;0.80;;
25279;SDS011;13225;47.804;12.116;2023-11-18T10:51:20;1.65;;;1.10;;
25279;SDS011;13225;47.804;12.116;2023-11-18T10:53:51;1.48;;;1.20;;
25279;SDS011;13225;47.804;12.116;2023-11-18T10:56:21;2.90;;;1.02;;
25279;SDS011;13225;47.804;12.116;2023-11-18T10:58:55;1.80;;;1.10;;
25279;SDS011;13225;47.804;12.116;2023-11-18T11:01:28;1.67;;;1.50;;
25279;SDS011;13225;47.804;12.116;2023-11-18T11:03:54;1.50;;;1.40;;
25279;SDS011;13225;47.804;12.116;2023-11-18T11:06:23;2.63;;;1.60;;
25279;SDS011;13225;47.804;12.116;2023-11-18T11:08:50;2.17;;;1.05;;
25279;SDS011;13225;47.804;12.116;2023-11-18T11:11:20;1.67;;;0.90;;
25279;SDS011;13225;47.804;12.116;2023-11-18T11:13:49;1.58;;;1.05;;
25279;SDS011;13225;47.804;12.116;2023-11-18T11:16:17;1.42;;;1.00;;
25279;SDS011;13225;47.804;12.116;2023-11-18T11:18:47;2.03;;;1.25;;
25279;SDS011;13225;47.804;12.116;2023-11-18T11:21:25;2.30;;;1.20;;
25279;SDS011;13225;47.804;12.116;2023-11-18T11:23:54;2.13;;;0.90;;
25279;SDS011;13225;47.804;12.116;2023-11-18T11:32:35;1.10;;;1.00;;
25279;SDS011;13225;47.804;12.116;2023-11-18T11:35:03;1.20;;;1.10;;
25279;SDS011;13225;47.804;12.116;2023-11-18T11:37:44;1.50;;;1.40;;
25279;SDS011;13225;47.804;12.116;2023-11-18T11:40:10;2.10;;;1.80;;
25279;SDS011;13225;47.804;12.116;2023-11-18T11:42:41;3.13;;;1.17;;
25279;SDS011;13225;47.804;12.116;2023-11-18T11:45:08;1.42;;;1.10;;
25279;SDS011;13225;47.804;12.116;2023-11-18T11:47:46;1.70;;;1.15;;
25279;SDS011;13225;47.804;12.116;2023-11-18T11:50:16;1.58;;;1.45;;
25279;SDS011;13225;47.804;12.116;2023-11-18T11:52:58;1.38;;;1.20;;
25279;SDS011;13225;47.804;12.116;2023-11-18T11:55:49;4.72;;;1.50;;
25279;SDS011;13225;47.804;12.116;2023-11-18T12:03:59;1.65;;;1.20;;
25279;SDS011;13225;47.804;12.116;2023-11-18T12:06:33;1.48;;;1.38;;
25279;SDS011;13225;47.804;12.116;2023-11-18T12:09:00;1.50;;;1.30;;
25279;SDS011;13225;47.804;12.116;2023-11-18T12:11:37;2.35;;;1.52;;
25279;SDS011;13225;47.804;12.116;2023-11-18T12:14:11;4.35;;;1.95;;
25279;SDS011;13225;47.804;12.116;2023-11-18T12:17:05;2.47;;;1.77;;
25279;SDS011;13225;47.804;12.116;2023-11-18T12:19:40;6.72;;;2.95;;
25279;SDS011;13225;47.804;12.116;2023-11-18T12:22:18;8.88;;;2.63;;
25279;SDS011;13225;47.804;12.116;2023-11-18T12:32:57;3.03;;;2.28;;
25279;SDS011;13225;47.804;12.116;2023-11-18T12:49:09;2.28;;;1.20;;
25279;SDS011;13225;47.804;12.116;2023-11-18T12:51:44;3.63;;;1.27;;
25279;SDS011;13225;47.804;12.116;2023-11-18T12:54:11;1.67;;;1.45;;
25279;SDS011;13225;47.804;12.116;2023-11-18T12:56:40;1.60;;;1.50;;
25279;SDS011;13225;47.804;12.116;2023-11-18T12:59:09;1.90;;;1.40;;
25279;SDS011;13225;47.804;12.116;2023-11-18T13:01:38;2.47;;;1.65;;
25279;SDS011;13225;47.804;12.116;2023-11-18T13:04:09;3.45;;;2.25;;
25279;SDS011;13225;47.804;12.116;2023-11-18T13:06:34;3.20;;;1.98;;
25279;SDS011;13225;47.804;12.116;2023-11-18T13:09:00;1.77;;;1.60;;
25279;SDS011;13225;47.804;12.116;2023-11-18T13:11:31;4.28;;;2.08;;
25279;SDS011;13225;47.804;12.116;2023-11-18T13:13:59;2.65;;;1.80;;
25279;SDS011;13225;47.804;12.116;2023-11-18T13:16:25;2.55;;;2.10;;
25279;SDS011;13225;47.804;12.116;2023-11-18T13:18:53;2.13;;;1.90;;
25279;SDS011;13225;47.804;12.116;2023-11-18T13:21:20;3.33;;;2.35;;
25279;SDS011;13225;47.804;12.116;2023-11-18T13:23:49;2.20;;;1.98;;
25279;SDS011;13225;47.804;12.116;2023-11-18T13:26:20;3.47;;;2.25;;
25279;SDS011;13225;47.804;12.116;2023-11-18T13:28:46;4.28;;;2.90;;
25279;SDS011;13225;47.804;12.116;2023-11-18T13:31:14;3.35;;;2.28;;
25279;SDS011;13225;47.804;12.116;2023-11-18T13:33:46;4.78;;;2.78;;
25279;SDS011;13225;47.804;12.116;2023-11-18T13:36:17;2.88;;;2.22;;
25279;SDS011;13225;47.804;12.116;2023-11-18T13:38:47;3.47;;;2.47;;
25279;SDS011;13225;47.804;12.116;2023-11-18T13:41:27;2.65;;;2.35;;
25279;SDS011;13225;47.804;12.116;2023-11-18T13:43:54;3.30;;;2.65;;
25279;SDS011;13225;47.804;12.116;2023-11-18T13:46:23;3.05;;;2.50;;
25279;SDS011;13225;47.804;12.116;2023-11-18T13:48:49;2.83;;;2.50;;
25279;SDS011;13225;47.804;12.116;2023-11-18T13:51:16;4.68;;;2.90;;
25279;SDS011;13225;47.804;12.116;2023-11-18T13:53:49;4.40;;;3.30;;
25279;SDS011;13225;47.804;12.116;2023-11-18T13:56:18;4.75;;;3.10;;
25279;SDS011;13225;47.804;12.116;2023-11-18T13:58:45;4.75;;;3.90;;
25279;SDS011;13225;47.804;12.116;2023-11-18T14:01:11;4.13;;;3.10;;
25279;SDS011;13225;47.804;12.116;2023-11-18T14:03:37;3.90;;;3.20;;
25279;SDS011;13225;47.804;12.116;2023-11-18T14:06:05;5.93;;;3.60;;
25279;SDS011;13225;47.804;12.116;2023-11-18T14:08:32;4.28;;;3.22;;
25279;SDS011;13225;47.804;12.116;2023-11-18T14:10:59;4.20;;;3.50;;
25279;SDS011;13225;47.804;12.116;2023-11-18T14:13:26;6.85;;;3.58;;
25279;SDS011;13225;47.804;12.116;2023-11-18T14:15:56;6.65;;;4.78;;
25279;SDS011;13225;47.804;12.116;2023-11-18T14:18:23;7.07;;;4.90;;
25279;SDS011;13225;47.804;12.116;2023-11-18T14:20:49;7.07;;;4.72;;
25279;SDS011;13225;47.804;12.116;2023-11-18T14:23:15;8.27;;;5.38;;
25279;SDS011;13225;47.804;12.116;2023-11-18T14:25:41;7.57;;;4.75;;
25279;SDS011;13225;47.804;12.116;2023-11-18T14:28:06;7.18;;;5.00;;
25279;SDS011;13225;47.804;12.116;2023-11-18T14:30:35;8.32;;;5.28;;
25279;SDS011;13225;47.804;12.116;2023-11-18T14:33:01;7.65;;;5.07;;
25279;SDS011;13225;47.804;12.116;2023-11-18T14:35:28;7.38;;;5.18;;
25279;SDS011;13225;47.804;12.116;2023-11-18T14:37:54;7.85;;;5.78;;
25279;SDS011;13225;47.804;12.116;2023-11-18T14:40:21;9.30;;;5.72;;
25279;SDS011;13225;47.804;12.116;2023-11-18T14:42:49;8.55;;;5.45;;
25279;SDS011;13225;47.804;12.116;2023-11-18T14:45:16;11.25;;;5.68;;
25279;SDS011;13225;47.804;12.116;2023-11-18T14:47:42;9.02;;;5.70;;
25279;SDS011;13225;47.804;12.116;2023-11-18T14:50:11;9.07;;;5.63;;
25279;SDS011;13225;47.804;12.116;2023-11-18T14:52:49;10.00;;;6.03;;
25279;SDS011;13225;47.804;12.116;2023-11-18T14:55:27;10.00;;;5.70;;
25279;SDS011;13225;47.804;12.116;2023-11-18T14:57:58;8.65;;;5.35;;
25279;SDS011;13225;47.804;12.116;2023-11-18T15:00:26;9.00;;;5.57;;
25279;SDS011;13225;47.804;12.116;2023-11-18T15:02:53;8.75;;;5.47;;
25279;SDS011;13225;47.804;12.116;2023-11-18T15:05:21;7.90;;;5.63;;
25279;SDS011;13225;47.804;12.116;2023-11-18T15:07:48;8.55;;;5.45;;
25279;SDS011;13225;47.804;12.116;2023-11-18T15:10:16;12.25;;;6.22;;
25279;SDS011;13225;47.804;12.116;2023-11-18T15:12:52;9.13;;;5.65;;
25279;SDS011;13225;47.804;12.116;2023-11-18T15:15:23;11.65;;;6.18;;
25279;SDS011;13225;47.804;12.116;2023-11-18T15:17:56;8.32;;;5.38;;
25279;SDS011;13225;47.804;12.116;2023-11-18T15:20:23;10.80;;;6.53;;
25279;SDS011;13225;47.804;12.116;2023-11-18T15:22:49;10.30;;;6.43;;